Startpagina
METAR-TAF:

METAR-TAF

Vliegvelden :

Tarawa, Kiribati

Bonriki International Airport

breedte: 01-21N, lengte: 172-55E, hoogte: 2 m

Actueel weer

Dit bericht is 58 minuten geleden gemaakt, om 01:00 UTC
Wind 14 kt uit het oosten
Temperatuur 31°C
Vochtigheid 71%
Druk
Zicht 10 km of meer
Verspreide wolken op 1800 ft, Stapelwolken.

METAR: NGTA 230100Z 09014KT 9999 SCT018TCU 31/25 Q////

Tijdstip: 15:58 (01:58 UTC)

Verwachting

Dit bericht is 2 uur en het 35 minuten geleden gemaakt, om 23:23 UTC
Verwachting geldig van 23 om 00 UTC tot 23 om 24 UTC
Wind 14 kt uit het oosten
Zicht 10 km of meer
Verspreide wolken op 1800 ft
Verspreide wolken op 10000 ft

TAF: NGTA 222323Z 2300/2324 08014KT 9999 SCT018 SCT100

Waarnemingen en weersverwachtingen van meer dan 4000 vliegvelden (METAR en TAF).

De beschikbare stations zijn de gele en rode punten op de kaart.

Ga met uw muis naar het station om de naam te zien.

Klik dan om waarnemingen en weersverwachtingen te zien.

kaart wijzigen: klik op de groene knoppen met een zwart kruis om in te zoomen, op de groene knop met een streepje om uit te zoomen of op de groene pijlen voor aangrenzende kaarten.


METAR-TAF: